0301 — QST0301 — position and weather

sailwx.info

Track history (hours):
 
Tides and Currents Weather Stations Pressure Air Temp Water Temp Dewpoint Dewpoint Depression Visibility Wind Speed Wind Dir Waves Ship Positions

0301

Last reported at 2017-Sep-14 17:44 UTC. Time now 2017-Sep-25 11:39 UTC.
Position N 34°09' W 119°14'.
Warning: this ship's position is 10 days out of date.

Length 13 m; draft 1 m.

Type: Military. MMSI: 369970282.

Date/timePositionNaut miles runAvg speedWind from/ knotsBaromVisibWave heightAir tempDewpointWater temp
2017-Sep-14 17:44N 34°09' W 119°14'0 0.9
2017-Sep-14 17:25N 34°10' W 119°13'0 0.0
2017-Sep-14 16:59N 34°10' W 119°13'1 2.3
2017-Sep-14 16:28N 34°09' W 119°13'1 0.1
2017-Sep-13 22:07N 34°08' W 119°12'219.3
2017-Sep-13 22:00N 34°07' W 119°10'2 3.1
2017-Sep-13 21:30N 34°05' W 119°09'0 0.9
2017-Sep-13 21:00N 34°06' W 119°09'0 0.6
2017-Sep-13 20:30N 34°06' W 119°09'0 0.1
2017-Sep-13 20:00N 34°05' W 119°09'1 2.1
2017-Sep-13 19:30N 34°05' W 119°08'1 1.2
2017-Sep-13 19:00N 34°05' W 119°09'1 1.3
2017-Sep-13 18:30N 34°06' W 119°09'  
2017-Sep-07 19:06N 34°09' W 119°13'0 1.0
2017-Sep-07 19:00N 34°09' W 119°13'1 1.9
2017-Sep-07 18:29N 34°10' W 119°13'5 9.6
2017-Sep-07 18:00N 34°06' W 119°11'1 1.8
2017-Sep-07 17:30N 34°06' W 119°10'0 0.8
2017-Sep-07 17:00N 34°06' W 119°09'1 1.7
2017-Sep-07 16:30N 34°05' W 119°09'0 0.8
2017-Sep-07 16:00N 34°05' W 119°08'1 2.6
2017-Sep-07 15:29N 34°05' W 119°10'2 3.8
2017-Sep-07 15:01N 34°05' W 119°08'611.1
2017-Sep-07 14:30N 34°09' W 119°13'0 0.0
2017-Sep-06 21:40N 34°09' W 119°13'0 0.0
2017-Sep-06 21:30N 34°09' W 119°13'0 0.0
2017-Sep-06 18:58N 34°09' W 119°13'2 3.6
2017-Sep-06 18:30N 34°08' W 119°12'2 5.0
2017-Sep-06 18:00N 34°05' W 119°10'2 3.5
2017-Sep-06 17:30N 34°05' W 119°08'0 0.2
2017-Sep-06 17:01N 34°06' W 119°08'1 2.1
2017-Sep-06 16:30N 34°06' W 119°09'2 3.3
2017-Sep-06 16:00N 34°05' W 119°08'4 8.7
2017-Sep-06 15:30N 34°08' W 119°12'1 2.8
2017-Sep-06 15:00N 34°09' W 119°13'  
Track history (hours):
 
Tides and Currents Weather Stations Pressure Air Temp Water Temp Dewpoint Dewpoint Depression Visibility Wind Speed Wind Dir Waves Ship Positions

0301

Last reported at 2017-Sep-14 17:44 UTC. Time now 2017-Sep-25 11:39 UTC.
Position N 34°09' W 119°14'.
Warning: this ship's position is 10 days out of date.

Length 13 m; draft 1 m.

Type: Military. MMSI: 369970282.

Date/timePositionNaut miles runAvg speedWind from/ knotsBaromVisibWave heightAir tempDewpointWater temp
2017-Sep-14 17:44N 34°09' W 119°14'0 0.9
2017-Sep-14 17:25N 34°10' W 119°13'0 0.0
2017-Sep-14 16:59N 34°10' W 119°13'1 2.3
2017-Sep-14 16:28N 34°09' W 119°13'1 0.1
2017-Sep-13 22:07N 34°08' W 119°12'219.3
2017-Sep-13 22:00N 34°07' W 119°10'2 3.1
2017-Sep-13 21:30N 34°05' W 119°09'0 0.9
2017-Sep-13 21:00N 34°06' W 119°09'0 0.6
2017-Sep-13 20:30N 34°06' W 119°09'0 0.1
2017-Sep-13 20:00N 34°05' W 119°09'1 2.1
2017-Sep-13 19:30N 34°05' W 119°08'1 1.2
2017-Sep-13 19:00N 34°05' W 119°09'1 1.3
2017-Sep-13 18:30N 34°06' W 119°09'  
2017-Sep-07 19:06N 34°09' W 119°13'0 1.0
2017-Sep-07 19:00N 34°09' W 119°13'1 1.9
2017-Sep-07 18:29N 34°10' W 119°13'5 9.6
2017-Sep-07 18:00N 34°06' W 119°11'1 1.8
2017-Sep-07 17:30N 34°06' W 119°10'0 0.8
2017-Sep-07 17:00N 34°06' W 119°09'1 1.7
2017-Sep-07 16:30N 34°05' W 119°09'0 0.8
2017-Sep-07 16:00N 34°05' W 119°08'1 2.6
2017-Sep-07 15:29N 34°05' W 119°10'2 3.8
2017-Sep-07 15:01N 34°05' W 119°08'611.1
2017-Sep-07 14:30N 34°09' W 119°13'0 0.0
2017-Sep-06 21:40N 34°09' W 119°13'0 0.0
2017-Sep-06 21:30N 34°09' W 119°13'0 0.0
2017-Sep-06 18:58N 34°09' W 119°13'2 3.6
2017-Sep-06 18:30N 34°08' W 119°12'2 5.0
2017-Sep-06 18:00N 34°05' W 119°10'2 3.5
2017-Sep-06 17:30N 34°05' W 119°08'0 0.2
2017-Sep-06 17:01N 34°06' W 119°08'1 2.1
2017-Sep-06 16:30N 34°06' W 119°09'2 3.3
2017-Sep-06 16:00N 34°05' W 119°08'4 8.7
2017-Sep-06 15:30N 34°08' W 119°12'1 2.8
2017-Sep-06 15:00N 34°09' W 119°13'  

Dump ship's entire track history